sensor_id;sensor_type;location;lat;lon;timestamp;P1;durP1;ratioP1;P2;durP2;ratioP2
47896;SDS011;39629;51.400;5.494;2022-08-21T00:00:36;2.40;;;1.55;;
47896;SDS011;39629;51.400;5.494;2022-08-21T00:05:40;2.25;;;1.40;;
47896;SDS011;39629;51.400;5.494;2022-08-21T00:10:43;2.80;;;1.30;;
47896;SDS011;39629;51.400;5.494;2022-08-21T00:15:48;2.20;;;1.30;;
47896;SDS011;39629;51.400;5.494;2022-08-21T00:20:49;3.30;;;1.53;;
47896;SDS011;39629;51.400;5.494;2022-08-21T00:25:51;2.20;;;1.25;;
47896;SDS011;39629;51.400;5.494;2022-08-21T00:30:54;3.67;;;1.08;;
47896;SDS011;39629;51.400;5.494;2022-08-21T00:35:56;5.23;;;1.40;;
47896;SDS011;39629;51.400;5.494;2022-08-21T00:40:59;1.95;;;1.40;;
47896;SDS011;39629;51.400;5.494;2022-08-21T00:46:04;3.03;;;1.38;;
47896;SDS011;39629;51.400;5.494;2022-08-21T00:56:11;1.55;;;1.20;;
47896;SDS011;39629;51.400;5.494;2022-08-21T01:01:15;2.85;;;1.40;;
47896;SDS011;39629;51.400;5.494;2022-08-21T01:06:17;4.35;;;1.40;;
47896;SDS011;39629;51.400;5.494;2022-08-21T01:11:19;2.67;;;1.40;;
47896;SDS011;39629;51.400;5.494;2022-08-21T01:16:23;2.80;;;1.20;;
47896;SDS011;39629;51.400;5.494;2022-08-21T01:21:27;2.00;;;1.00;;
47896;SDS011;39629;51.400;5.494;2022-08-21T01:26:30;1.43;;;1.00;;
47896;SDS011;39629;51.400;5.494;2022-08-21T01:31:34;1.48;;;1.15;;
47896;SDS011;39629;51.400;5.494;2022-08-21T01:36:38;1.98;;;1.30;;
47896;SDS011;39629;51.400;5.494;2022-08-21T01:41:40;1.83;;;1.05;;
47896;SDS011;39629;51.400;5.494;2022-08-21T01:46:42;2.42;;;1.40;;
47896;SDS011;39629;51.400;5.494;2022-08-21T01:51:45;4.50;;;2.08;;
47896;SDS011;39629;51.400;5.494;2022-08-21T01:56:47;3.63;;;2.15;;
47896;SDS011;39629;51.400;5.494;2022-08-21T02:01:51;3.38;;;1.70;;
47896;SDS011;39629;51.400;5.494;2022-08-21T02:06:55;4.57;;;2.20;;
47896;SDS011;39629;51.400;5.494;2022-08-21T02:11:57;2.55;;;1.33;;
47896;SDS011;39629;51.400;5.494;2022-08-21T02:16:59;2.50;;;1.50;;
47896;SDS011;39629;51.400;5.494;2022-08-21T02:22:02;2.17;;;1.20;;
47896;SDS011;39629;51.400;5.494;2022-08-21T02:27:04;1.80;;;1.25;;
47896;SDS011;39629;51.400;5.494;2022-08-21T02:32:06;2.60;;;1.50;;
47896;SDS011;39629;51.400;5.494;2022-08-21T02:37:09;2.70;;;1.48;;
47896;SDS011;39629;51.400;5.494;2022-08-21T02:42:12;3.00;;;1.83;;
47896;SDS011;39629;51.400;5.494;2022-08-21T02:47:14;3.55;;;1.73;;
47896;SDS011;39629;51.400;5.494;2022-08-21T02:52:17;4.53;;;2.35;;
47896;SDS011;39629;51.400;5.494;2022-08-21T02:57:19;4.45;;;2.50;;
47896;SDS011;39629;51.400;5.494;2022-08-21T03:02:20;3.95;;;2.15;;
47896;SDS011;39629;51.400;5.494;2022-08-21T03:07:23;4.20;;;2.60;;
47896;SDS011;39629;51.400;5.494;2022-08-21T03:12:25;4.10;;;2.33;;
47896;SDS011;39629;51.400;5.494;2022-08-21T03:17:27;4.45;;;2.38;;
47896;SDS011;39629;51.400;5.494;2022-08-21T03:22:30;5.57;;;2.85;;
47896;SDS011;39629;51.400;5.494;2022-08-21T03:27:32;4.68;;;2.78;;
47896;SDS011;39629;51.400;5.494;2022-08-21T03:32:34;3.65;;;2.30;;
47896;SDS011;39629;51.400;5.494;2022-08-21T03:37:37;3.40;;;2.15;;
47896;SDS011;39629;51.400;5.494;2022-08-21T03:42:39;4.30;;;2.58;;
47896;SDS011;39629;51.400;5.494;2022-08-21T03:47:50;3.67;;;2.50;;
47896;SDS011;39629;51.400;5.494;2022-08-21T03:52:53;4.65;;;2.25;;
47896;SDS011;39629;51.400;5.494;2022-08-21T03:57:55;2.88;;;2.20;;
47896;SDS011;39629;51.400;5.494;2022-08-21T04:02:57;4.10;;;2.35;;
47896;SDS011;39629;51.400;5.494;2022-08-21T04:08:00;3.45;;;2.10;;
47896;SDS011;39629;51.400;5.494;2022-08-21T04:13:04;3.25;;;2.10;;
47896;SDS011;39629;51.400;5.494;2022-08-21T04:18:07;2.65;;;1.75;;
47896;SDS011;39629;51.400;5.494;2022-08-21T04:23:10;2.13;;;1.70;;
47896;SDS011;39629;51.400;5.494;2022-08-21T04:28:12;4.18;;;2.10;;
47896;SDS011;39629;51.400;5.494;2022-08-21T04:33:13;3.65;;;2.50;;
47896;SDS011;39629;51.400;5.494;2022-08-21T04:38:16;5.38;;;2.92;;
47896;SDS011;39629;51.400;5.494;2022-08-21T04:43:18;4.47;;;2.80;;
47896;SDS011;39629;51.400;5.494;2022-08-21T04:48:21;4.78;;;2.92;;
47896;SDS011;39629;51.400;5.494;2022-08-21T04:53:33;6.72;;;3.05;;
47896;SDS011;39629;51.400;5.494;2022-08-21T04:58:38;3.95;;;2.55;;
47896;SDS011;39629;51.400;5.494;2022-08-21T05:03:40;5.85;;;3.58;;
47896;SDS011;39629;51.400;5.494;2022-08-21T05:08:44;5.57;;;3.42;;
47896;SDS011;39629;51.400;5.494;2022-08-21T05:13:49;3.75;;;2.33;;
47896;SDS011;39629;51.400;5.494;2022-08-21T05:18:51;4.82;;;2.85;;
47896;SDS011;39629;51.400;5.494;2022-08-21T05:23:54;4.10;;;2.67;;
47896;SDS011;39629;51.400;5.494;2022-08-21T05:28:56;4.45;;;2.50;;
47896;SDS011;39629;51.400;5.494;2022-08-21T05:33:58;3.60;;;2.47;;
47896;SDS011;39629;51.400;5.494;2022-08-21T05:39:01;5.38;;;3.13;;
47896;SDS011;39629;51.400;5.494;2022-08-21T05:44:03;4.55;;;2.78;;
47896;SDS011;39629;51.400;5.494;2022-08-21T05:49:05;8.65;;;3.53;;
47896;SDS011;39629;51.400;5.494;2022-08-21T05:54:07;7.72;;;3.25;;
47896;SDS011;39629;51.400;5.494;2022-08-21T05:59:09;9.10;;;3.65;;
47896;SDS011;39629;51.400;5.494;2022-08-21T06:04:13;6.30;;;3.00;;
47896;SDS011;39629;51.400;5.494;2022-08-21T06:09:16;7.60;;;3.25;;
47896;SDS011;39629;51.400;5.494;2022-08-21T06:14:18;6.38;;;2.97;;
47896;SDS011;39629;51.400;5.494;2022-08-21T06:19:19;5.50;;;2.80;;
47896;SDS011;39629;51.400;5.494;2022-08-21T06:24:22;4.57;;;2.13;;
47896;SDS011;39629;51.400;5.494;2022-08-21T06:29:24;5.13;;;2.45;;
47896;SDS011;39629;51.400;5.494;2022-08-21T06:34:25;6.05;;;2.17;;
47896;SDS011;39629;51.400;5.494;2022-08-21T06:39:28;4.95;;;2.45;;
47896;SDS011;39629;51.400;5.494;2022-08-21T06:44:30;4.70;;;2.20;;
47896;SDS011;39629;51.400;5.494;2022-08-21T06:49:32;6.30;;;1.98;;
47896;SDS011;39629;51.400;5.494;2022-08-21T06:54:35;7.10;;;2.30;;
47896;SDS011;39629;51.400;5.494;2022-08-21T06:59:37;6.07;;;2.08;;
47896;SDS011;39629;51.400;5.494;2022-08-21T07:04:38;5.35;;;1.80;;
47896;SDS011;39629;51.400;5.494;2022-08-21T07:09:41;8.73;;;2.28;;
47896;SDS011;39629;51.400;5.494;2022-08-21T07:14:43;7.95;;;1.85;;
47896;SDS011;39629;51.400;5.494;2022-08-21T07:19:44;5.38;;;1.60;;
47896;SDS011;39629;51.400;5.494;2022-08-21T07:24:48;5.70;;;1.65;;
47896;SDS011;39629;51.400;5.494;2022-08-21T07:29:49;4.82;;;1.42;;
47896;SDS011;39629;51.400;5.494;2022-08-21T07:34:51;5.70;;;1.55;;
47896;SDS011;39629;51.400;5.494;2022-08-21T07:39:54;8.13;;;2.05;;
47896;SDS011;39629;51.400;5.494;2022-08-21T07:44:55;7.38;;;1.80;;
47896;SDS011;39629;51.400;5.494;2022-08-21T07:49:57;7.72;;;1.70;;
47896;SDS011;39629;51.400;5.494;2022-08-21T07:55:00;7.45;;;1.70;;
47896;SDS011;39629;51.400;5.494;2022-08-21T08:00:02;6.05;;;1.55;;
47896;SDS011;39629;51.400;5.494;2022-08-21T08:05:12;6.18;;;1.90;;
47896;SDS011;39629;51.400;5.494;2022-08-21T08:10:15;5.10;;;1.33;;
47896;SDS011;39629;51.400;5.494;2022-08-21T08:15:18;9.63;;;1.33;;
47896;SDS011;39629;51.400;5.494;2022-08-21T08:20:21;5.55;;;1.00;;
47896;SDS011;39629;51.400;5.494;2022-08-21T08:25:26;5.93;;;1.35;;
47896;SDS011;39629;51.400;5.494;2022-08-21T08:30:28;4.55;;;1.15;;
47896;SDS011;39629;51.400;5.494;2022-08-21T08:35:30;4.50;;;1.13;;
47896;SDS011;39629;51.400;5.494;2022-08-21T08:40:35;7.78;;;1.17;;
47896;SDS011;39629;51.400;5.494;2022-08-21T08:45:44;4.90;;;1.10;;
47896;SDS011;39629;51.400;5.494;2022-08-21T08:50:52;5.65;;;1.25;;
47896;SDS011;39629;51.400;5.494;2022-08-21T08:55:57;5.10;;;1.20;;
47896;SDS011;39629;51.400;5.494;2022-08-21T09:01:03;5.10;;;1.15;;
47896;SDS011;39629;51.400;5.494;2022-08-21T09:06:10;8.23;;;1.17;;
47896;SDS011;39629;51.400;5.494;2022-08-21T09:11:28;3.03;;;1.00;;
47896;SDS011;39629;51.400;5.494;2022-08-21T09:16:36;3.80;;;0.90;;
47896;SDS011;39629;51.400;5.494;2022-08-21T09:21:48;4.05;;;0.90;;
47896;SDS011;39629;51.400;5.494;2022-08-21T09:26:57;5.43;;;1.17;;
47896;SDS011;39629;51.400;5.494;2022-08-21T09:32:19;5.53;;;1.20;;
47896;SDS011;39629;51.400;5.494;2022-08-21T09:37:23;4.97;;;1.00;;
47896;SDS011;39629;51.400;5.494;2022-08-21T09:42:27;5.22;;;0.90;;
47896;SDS011;39629;51.400;5.494;2022-08-21T09:47:32;3.10;;;0.90;;
47896;SDS011;39629;51.400;5.494;2022-08-21T09:52:33;3.22;;;0.80;;
47896;SDS011;39629;51.400;5.494;2022-08-21T09:57:36;2.97;;;0.77;;
47896;SDS011;39629;51.400;5.494;2022-08-21T10:02:46;3.75;;;0.73;;
47896;SDS011;39629;51.400;5.494;2022-08-21T10:07:47;4.05;;;1.00;;
47896;SDS011;39629;51.400;5.494;2022-08-21T10:12:56;5.80;;;1.27;;
47896;SDS011;39629;51.400;5.494;2022-08-21T10:18:06;3.20;;;0.90;;
47896;SDS011;39629;51.400;5.494;2022-08-21T10:23:20;2.30;;;0.65;;
47896;SDS011;39629;51.400;5.494;2022-08-21T10:28:36;2.55;;;0.60;;
47896;SDS011;39629;51.400;5.494;2022-08-21T10:33:42;3.47;;;0.70;;
47896;SDS011;39629;51.400;5.494;2022-08-21T10:44:12;6.10;;;0.90;;
47896;SDS011;39629;51.400;5.494;2022-08-21T10:49:27;2.85;;;0.80;;
47896;SDS011;39629;51.400;5.494;2022-08-21T10:54:38;3.25;;;0.82;;
47896;SDS011;39629;51.400;5.494;2022-08-21T10:59:49;3.33;;;0.80;;
47896;SDS011;39629;51.400;5.494;2022-08-21T11:04:59;2.15;;;0.70;;
47896;SDS011;39629;51.400;5.494;2022-08-21T11:10:04;4.20;;;0.80;;
47896;SDS011;39629;51.400;5.494;2022-08-21T11:15:18;2.33;;;0.63;;
47896;SDS011;39629;51.400;5.494;2022-08-21T11:20:31;4.28;;;0.80;;
47896;SDS011;39629;51.400;5.494;2022-08-21T11:25:38;4.07;;;1.10;;
47896;SDS011;39629;51.400;5.494;2022-08-21T11:30:47;3.65;;;0.80;;
47896;SDS011;39629;51.400;5.494;2022-08-21T11:35:53;3.70;;;0.80;;
47896;SDS011;39629;51.400;5.494;2022-08-21T11:41:08;3.55;;;0.82;;
47896;SDS011;39629;51.400;5.494;2022-08-21T11:46:26;4.25;;;1.05;;
47896;SDS011;39629;51.400;5.494;2022-08-21T11:51:36;4.00;;;1.10;;
47896;SDS011;39629;51.400;5.494;2022-08-21T11:56:43;4.63;;;1.05;;
47896;SDS011;39629;51.400;5.494;2022-08-21T12:01:50;3.08;;;0.90;;
47896;SDS011;39629;51.400;5.494;2022-08-21T12:06:53;4.07;;;0.85;;
47896;SDS011;39629;51.400;5.494;2022-08-21T12:12:01;4.83;;;0.83;;
47896;SDS011;39629;51.400;5.494;2022-08-21T12:17:07;2.78;;;0.80;;
47896;SDS011;39629;51.400;5.494;2022-08-21T12:22:10;3.33;;;1.00;;
47896;SDS011;39629;51.400;5.494;2022-08-21T12:27:22;3.05;;;0.75;;
47896;SDS011;39629;51.400;5.494;2022-08-21T12:32:42;5.60;;;1.10;;
47896;SDS011;39629;51.400;5.494;2022-08-21T12:37:46;4.88;;;1.00;;
47896;SDS011;39629;51.400;5.494;2022-08-21T12:42:53;3.63;;;1.00;;
47896;SDS011;39629;51.400;5.494;2022-08-21T12:48:00;2.17;;;0.90;;
47896;SDS011;39629;51.400;5.494;2022-08-21T12:53:09;2.65;;;0.90;;
47896;SDS011;39629;51.400;5.494;2022-08-21T12:58:17;3.20;;;1.13;;
47896;SDS011;39629;51.400;5.494;2022-08-21T13:03:22;3.55;;;1.20;;
47896;SDS011;39629;51.400;5.494;2022-08-21T13:08:24;4.80;;;1.67;;
47896;SDS011;39629;51.400;5.494;2022-08-21T13:13:27;3.58;;;1.10;;
47896;SDS011;39629;51.400;5.494;2022-08-21T13:18:32;4.85;;;1.20;;
47896;SDS011;39629;51.400;5.494;2022-08-21T13:23:35;6.07;;;1.60;;
47896;SDS011;39629;51.400;5.494;2022-08-21T13:28:36;2.50;;;1.27;;
47896;SDS011;39629;51.400;5.494;2022-08-21T13:33:39;3.10;;;1.43;;
47896;SDS011;39629;51.400;5.494;2022-08-21T13:38:42;5.30;;;1.63;;
47896;SDS011;39629;51.400;5.494;2022-08-21T13:43:48;3.22;;;1.70;;
47896;SDS011;39629;51.400;5.494;2022-08-21T13:48:52;3.63;;;1.60;;
47896;SDS011;39629;51.400;5.494;2022-08-21T13:53:55;3.80;;;1.65;;
47896;SDS011;39629;51.400;5.494;2022-08-21T13:58:57;3.67;;;1.90;;
47896;SDS011;39629;51.400;5.494;2022-08-21T14:04:03;3.65;;;1.80;;
47896;SDS011;39629;51.400;5.494;2022-08-21T14:09:09;2.90;;;1.50;;
47896;SDS011;39629;51.400;5.494;2022-08-21T14:14:15;4.80;;;1.60;;
47896;SDS011;39629;51.400;5.494;2022-08-21T14:19:23;5.05;;;1.52;;
47896;SDS011;39629;51.400;5.494;2022-08-21T14:24:28;5.07;;;1.80;;
47896;SDS011;39629;51.400;5.494;2022-08-21T14:29:33;4.03;;;1.70;;
47896;SDS011;39629;51.400;5.494;2022-08-21T14:34:37;3.15;;;1.77;;
47896;SDS011;39629;51.400;5.494;2022-08-21T14:39:39;4.35;;;1.77;;
47896;SDS011;39629;51.400;5.494;2022-08-21T14:44:40;3.72;;;1.70;;
47896;SDS011;39629;51.400;5.494;2022-08-21T14:49:43;4.10;;;1.73;;
47896;SDS011;39629;51.400;5.494;2022-08-21T14:54:45;5.72;;;1.83;;
47896;SDS011;39629;51.400;5.494;2022-08-21T14:59:46;3.78;;;1.77;;
47896;SDS011;39629;51.400;5.494;2022-08-21T15:04:49;4.40;;;1.67;;
47896;SDS011;39629;51.400;5.494;2022-08-21T15:09:51;3.95;;;1.80;;
47896;SDS011;39629;51.400;5.494;2022-08-21T15:14:52;4.18;;;2.15;;
47896;SDS011;39629;51.400;5.494;2022-08-21T15:19:55;4.15;;;1.77;;
47896;SDS011;39629;51.400;5.494;2022-08-21T15:24:57;4.47;;;2.05;;
47896;SDS011;39629;51.400;5.494;2022-08-21T15:29:59;4.83;;;1.93;;
47896;SDS011;39629;51.400;5.494;2022-08-21T15:35:02;5.43;;;2.93;;
47896;SDS011;39629;51.400;5.494;2022-08-21T15:40:04;3.85;;;1.88;;
47896;SDS011;39629;51.400;5.494;2022-08-21T15:45:08;4.47;;;1.92;;
47896;SDS011;39629;51.400;5.494;2022-08-21T15:50:15;4.65;;;2.00;;
47896;SDS011;39629;51.400;5.494;2022-08-21T15:55:17;5.80;;;2.00;;
47896;SDS011;39629;51.400;5.494;2022-08-21T16:00:20;6.43;;;2.03;;
47896;SDS011;39629;51.400;5.494;2022-08-21T16:05:24;6.07;;;2.20;;
47896;SDS011;39629;51.400;5.494;2022-08-21T16:10:26;6.25;;;2.10;;
47896;SDS011;39629;51.400;5.494;2022-08-21T16:15:28;4.87;;;1.90;;
47896;SDS011;39629;51.400;5.494;2022-08-21T16:20:31;5.70;;;2.27;;
47896;SDS011;39629;51.400;5.494;2022-08-21T16:25:34;4.72;;;1.70;;
47896;SDS011;39629;51.400;5.494;2022-08-21T16:30:36;5.95;;;1.67;;
47896;SDS011;39629;51.400;5.494;2022-08-21T16:35:39;5.05;;;1.30;;
47896;SDS011;39629;51.400;5.494;2022-08-21T16:45:42;4.57;;;1.67;;
47896;SDS011;39629;51.400;5.494;2022-08-21T16:50:45;6.22;;;1.63;;
47896;SDS011;39629;51.400;5.494;2022-08-21T17:00:49;4.82;;;1.60;;
47896;SDS011;39629;51.400;5.494;2022-08-21T17:05:52;2.95;;;1.30;;
47896;SDS011;39629;51.400;5.494;2022-08-21T17:10:54;6.05;;;1.25;;
47896;SDS011;39629;51.400;5.494;2022-08-21T17:15:56;4.82;;;1.20;;
47896;SDS011;39629;51.400;5.494;2022-08-21T17:20:59;3.83;;;1.10;;
47896;SDS011;39629;51.400;5.494;2022-08-21T17:26:00;5.72;;;1.30;;
47896;SDS011;39629;51.400;5.494;2022-08-21T17:31:02;5.32;;;1.60;;
47896;SDS011;39629;51.400;5.494;2022-08-21T17:36:09;3.67;;;1.10;;
47896;SDS011;39629;51.400;5.494;2022-08-21T17:41:11;7.35;;;1.17;;
47896;SDS011;39629;51.400;5.494;2022-08-21T17:46:19;3.80;;;1.13;;
47896;SDS011;39629;51.400;5.494;2022-08-21T17:51:24;4.10;;;1.20;;
47896;SDS011;39629;51.400;5.494;2022-08-21T17:56:26;3.17;;;1.10;;
47896;SDS011;39629;51.400;5.494;2022-08-21T18:01:31;2.53;;;1.20;;
47896;SDS011;39629;51.400;5.494;2022-08-21T18:06:37;4.22;;;1.65;;
47896;SDS011;39629;51.400;5.494;2022-08-21T18:11:40;4.65;;;1.23;;
47896;SDS011;39629;51.400;5.494;2022-08-21T18:21:46;4.93;;;1.20;;
47896;SDS011;39629;51.400;5.494;2022-08-21T18:26:47;3.85;;;1.05;;
47896;SDS011;39629;51.400;5.494;2022-08-21T18:31:50;5.37;;;1.20;;
47896;SDS011;39629;51.400;5.494;2022-08-21T18:36:53;4.30;;;1.20;;
47896;SDS011;39629;51.400;5.494;2022-08-21T18:41:56;4.47;;;1.10;;
47896;SDS011;39629;51.400;5.494;2022-08-21T18:46:59;4.75;;;1.00;;
47896;SDS011;39629;51.400;5.494;2022-08-21T18:52:05;3.78;;;1.10;;
47896;SDS011;39629;51.400;5.494;2022-08-21T19:02:09;5.18;;;1.30;;
47896;SDS011;39629;51.400;5.494;2022-08-21T19:07:12;4.45;;;1.17;;
47896;SDS011;39629;51.400;5.494;2022-08-21T19:12:15;3.75;;;1.50;;
47896;SDS011;39629;51.400;5.494;2022-08-21T19:17:21;4.53;;;1.50;;
47896;SDS011;39629;51.400;5.494;2022-08-21T19:22:24;6.13;;;1.30;;
47896;SDS011;39629;51.400;5.494;2022-08-21T19:27:25;4.10;;;1.60;;
47896;SDS011;39629;51.400;5.494;2022-08-21T19:32:27;4.50;;;1.60;;
47896;SDS011;39629;51.400;5.494;2022-08-21T19:37:32;4.60;;;1.33;;
47896;SDS011;39629;51.400;5.494;2022-08-21T19:42:34;3.13;;;1.40;;
47896;SDS011;39629;51.400;5.494;2022-08-21T19:47:36;6.20;;;1.40;;
47896;SDS011;39629;51.400;5.494;2022-08-21T19:52:43;3.55;;;1.23;;
47896;SDS011;39629;51.400;5.494;2022-08-21T19:57:45;3.63;;;1.10;;
47896;SDS011;39629;51.400;5.494;2022-08-21T20:02:46;4.28;;;1.40;;
47896;SDS011;39629;51.400;5.494;2022-08-21T20:07:50;3.92;;;1.20;;
47896;SDS011;39629;51.400;5.494;2022-08-21T20:12:51;3.07;;;1.10;;
47896;SDS011;39629;51.400;5.494;2022-08-21T20:17:53;4.55;;;1.10;;
47896;SDS011;39629;51.400;5.494;2022-08-21T20:22:56;3.50;;;1.15;;
47896;SDS011;39629;51.400;5.494;2022-08-21T20:27:57;3.00;;;1.20;;
47896;SDS011;39629;51.400;5.494;2022-08-21T20:33:00;2.95;;;1.13;;
47896;SDS011;39629;51.400;5.494;2022-08-21T20:38:03;3.67;;;1.10;;
47896;SDS011;39629;51.400;5.494;2022-08-21T20:43:05;6.15;;;2.47;;
47896;SDS011;39629;51.400;5.494;2022-08-21T20:48:10;4.88;;;2.00;;
47896;SDS011;39629;51.400;5.494;2022-08-21T20:53:19;4.43;;;1.50;;
47896;SDS011;39629;51.400;5.494;2022-08-21T20:58:31;4.20;;;1.67;;
47896;SDS011;39629;51.400;5.494;2022-08-21T21:03:39;5.13;;;1.88;;
47896;SDS011;39629;51.400;5.494;2022-08-21T21:08:46;2.88;;;1.38;;
47896;SDS011;39629;51.400;5.494;2022-08-21T21:13:51;4.57;;;1.30;;
47896;SDS011;39629;51.400;5.494;2022-08-21T21:18:57;2.05;;;1.15;;
47896;SDS011;39629;51.400;5.494;2022-08-21T21:24:03;6.93;;;1.92;;
47896;SDS011;39629;51.400;5.494;2022-08-21T21:29:09;3.03;;;1.35;;
47896;SDS011;39629;51.400;5.494;2022-08-21T21:34:14;3.40;;;1.40;;
47896;SDS011;39629;51.400;5.494;2022-08-21T21:39:19;4.70;;;1.40;;
47896;SDS011;39629;51.400;5.494;2022-08-21T21:44:34;3.95;;;1.55;;
47896;SDS011;39629;51.400;5.494;2022-08-21T21:49:51;3.42;;;1.52;;
47896;SDS011;39629;51.400;5.494;2022-08-21T21:55:03;3.30;;;1.65;;
47896;SDS011;39629;51.400;5.494;2022-08-21T22:00:14;4.18;;;1.40;;
47896;SDS011;39629;51.400;5.494;2022-08-21T22:05:20;4.22;;;1.45;;
47896;SDS011;39629;51.400;5.494;2022-08-21T22:10:35;2.45;;;1.50;;
47896;SDS011;39629;51.400;5.494;2022-08-21T22:15:43;2.95;;;1.60;;
47896;SDS011;39629;51.400;5.494;2022-08-21T22:20:47;6.13;;;1.70;;
47896;SDS011;39629;51.400;5.494;2022-08-21T22:25:55;5.18;;;1.90;;
47896;SDS011;39629;51.400;5.494;2022-08-21T22:31:13;4.32;;;1.67;;
47896;SDS011;39629;51.400;5.494;2022-08-21T22:36:17;2.88;;;1.27;;
47896;SDS011;39629;51.400;5.494;2022-08-21T22:41:23;2.97;;;1.67;;
47896;SDS011;39629;51.400;5.494;2022-08-21T22:46:28;5.30;;;1.50;;
47896;SDS011;39629;51.400;5.494;2022-08-21T22:51:34;4.20;;;1.60;;
47896;SDS011;39629;51.400;5.494;2022-08-21T22:56:40;3.45;;;1.48;;
47896;SDS011;39629;51.400;5.494;2022-08-21T23:01:45;5.55;;;1.90;;
47896;SDS011;39629;51.400;5.494;2022-08-21T23:06:56;4.45;;;1.75;;
47896;SDS011;39629;51.400;5.494;2022-08-21T23:22:23;3.65;;;1.45;;
47896;SDS011;39629;51.400;5.494;2022-08-21T23:27:38;6.28;;;1.70;;
47896;SDS011;39629;51.400;5.494;2022-08-21T23:33:11;3.05;;;1.60;;
47896;SDS011;39629;51.400;5.494;2022-08-21T23:38:31;3.58;;;1.55;;
47896;SDS011;39629;51.400;5.494;2022-08-21T23:43:47;3.95;;;1.70;;
47896;SDS011;39629;51.400;5.494;2022-08-21T23:49:01;8.15;;;1.70;;
47896;SDS011;39629;51.400;5.494;2022-08-21T23:54:12;3.53;;;1.83;;
47896;SDS011;39629;51.400;5.494;2022-08-21T23:59:25;4.65;;;1.85;;
